sensor_id;sensor_type;location;lat;lon;timestamp;pressure;altitude;pressure_sealevel;temperature;humidity
70407;BME280;57821;52.202;0.154;2023-03-31T00:01:31;99538.66;;;10.92;95.04
70407;BME280;57821;52.202;0.154;2023-03-31T00:03:57;99525.78;;;10.89;95.43
70407;BME280;57821;52.202;0.154;2023-03-31T00:06:24;99520.66;;;10.86;96.14
70407;BME280;57821;52.202;0.154;2023-03-31T00:08:51;99507.72;;;10.84;95.51
70407;BME280;57821;52.202;0.154;2023-03-31T00:11:19;99504.31;;;10.82;96.06
70407;BME280;57821;52.202;0.154;2023-03-31T00:13:46;99490.56;;;10.79;96.09
70407;BME280;57821;52.202;0.154;2023-03-31T00:16:13;99482.78;;;10.79;96.46
70407;BME280;57821;52.202;0.154;2023-03-31T00:18:39;99474.22;;;10.77;96.48
70407;BME280;57821;52.202;0.154;2023-03-31T00:21:09;99462.13;;;10.76;96.94
70407;BME280;57821;52.202;0.154;2023-03-31T00:23:36;99457.81;;;10.76;97.10
70407;BME280;57821;52.202;0.154;2023-03-31T00:26:03;99445.72;;;10.75;97.53
70407;BME280;57821;52.202;0.154;2023-03-31T00:28:30;99432.78;;;10.74;98.02
70407;BME280;57821;52.202;0.154;2023-03-31T00:31:01;99429.41;;;10.72;98.22
70407;BME280;57821;52.202;0.154;2023-03-31T00:33:28;99411.28;;;10.70;97.97
70407;BME280;57821;52.202;0.154;2023-03-31T00:35:55;99410.44;;;10.69;98.72
70407;BME280;57821;52.202;0.154;2023-03-31T00:38:21;99401.84;;;10.67;98.41
70407;BME280;57821;52.202;0.154;2023-03-31T00:40:48;99393.28;;;10.65;99.35
70407;BME280;57821;52.202;0.154;2023-03-31T00:43:32;99394.09;;;10.66;100.00
70407;BME280;57821;52.202;0.154;2023-03-31T00:46:01;99380.31;;;10.65;100.00
70407;BME280;57821;52.202;0.154;2023-03-31T00:48:30;99366.53;;;10.63;99.85
70407;BME280;57821;52.202;0.154;2023-03-31T00:50:58;99353.69;;;10.59;99.43
70407;BME280;57821;52.202;0.154;2023-03-31T00:53:29;99345.22;;;10.52;99.72
70407;BME280;57821;52.202;0.154;2023-03-31T00:56:01;99340.88;;;10.53;100.00
70407;BME280;57821;52.202;0.154;2023-03-31T00:58:30;99343.31;;;10.59;99.93
70407;BME280;57821;52.202;0.154;2023-03-31T01:00:58;99336.41;;;10.59;99.16
70407;BME280;57821;52.202;0.154;2023-03-31T01:03:25;99319.16;;;10.58;100.00
70407;BME280;57821;52.202;0.154;2023-03-31T01:05:55;99315.66;;;10.59;100.00
70407;BME280;57821;52.202;0.154;2023-03-31T01:08:25;99306.16;;;10.60;100.00
70407;BME280;57821;52.202;0.154;2023-03-31T01:10:55;99290.69;;;10.55;100.00
70407;BME280;57821;52.202;0.154;2023-03-31T01:13:23;99290.50;;;10.63;100.00
70407;BME280;57821;52.202;0.154;2023-03-31T01:15:50;99278.41;;;10.63;100.00
70407;BME280;57821;52.202;0.154;2023-03-31T01:18:17;99276.63;;;10.65;100.00
70407;BME280;57821;52.202;0.154;2023-03-31T01:30:07;99229.91;;;10.67;100.00
70407;BME280;57821;52.202;0.154;2023-03-31T01:33:11;99218.66;;;10.68;100.00
70407;BME280;57821;52.202;0.154;2023-03-31T01:41:32;99197.06;;;10.67;100.00
70407;BME280;57821;52.202;0.154;2023-03-31T01:47:00;99164.50;;;10.59;100.00
70407;BME280;57821;52.202;0.154;2023-03-31T01:49:50;99165.16;;;10.65;100.00
70407;BME280;57821;52.202;0.154;2023-03-31T01:52:48;99161.72;;;10.65;100.00
70407;BME280;57821;52.202;0.154;2023-03-31T01:55:22;99144.59;;;10.59;100.00
70407;BME280;57821;52.202;0.154;2023-03-31T01:57:59;99134.28;;;10.58;100.00
70407;BME280;57821;52.202;0.154;2023-03-31T02:00:36;99120.47;;;10.57;100.00
70407;BME280;57821;52.202;0.154;2023-03-31T02:03:36;99135.84;;;10.63;100.00
70407;BME280;57821;52.202;0.154;2023-03-31T02:06:11;99113.41;;;10.62;100.00
70407;BME280;57821;52.202;0.154;2023-03-31T02:08:44;99104.81;;;10.60;100.00
70407;BME280;57821;52.202;0.154;2023-03-31T02:11:12;99092.78;;;10.59;100.00
70407;BME280;57821;52.202;0.154;2023-03-31T02:13:41;99068.63;;;10.57;100.00
70407;BME280;57821;52.202;0.154;2023-03-31T02:16:12;99076.41;;;10.57;100.00
70407;BME280;57821;52.202;0.154;2023-03-31T02:18:42;99050.72;;;10.50;99.84
70407;BME280;57821;52.202;0.154;2023-03-31T02:21:10;99057.53;;;10.54;100.00
70407;BME280;57821;52.202;0.154;2023-03-31T02:23:37;99051.50;;;10.53;100.00
70407;BME280;57821;52.202;0.154;2023-03-31T02:26:14;99037.72;;;10.51;100.00
70407;BME280;57821;52.202;0.154;2023-03-31T02:28:42;99024.81;;;10.50;100.00
70407;BME280;57821;52.202;0.154;2023-03-31T02:34:05;99012.69;;;10.50;100.00
70407;BME280;57821;52.202;0.154;2023-03-31T02:36:33;98998.22;;;10.43;100.00
70407;BME280;57821;52.202;0.154;2023-03-31T02:39:07;98991.19;;;10.48;100.00
70407;BME280;57821;52.202;0.154;2023-03-31T02:41:35;98983.34;;;10.50;100.00
70407;BME280;57821;52.202;0.154;2023-03-31T02:44:02;98977.31;;;10.49;100.00
70407;BME280;57821;52.202;0.154;2023-03-31T02:46:30;98970.47;;;10.48;100.00
70407;BME280;57821;52.202;0.154;2023-03-31T02:49:02;98955.94;;;10.43;100.00
70407;BME280;57821;52.202;0.154;2023-03-31T02:57:53;98941.81;;;10.53;100.00
70407;BME280;57821;52.202;0.154;2023-03-31T03:06:41;98914.06;;;10.55;100.00
70407;BME280;57821;52.202;0.154;2023-03-31T03:12:47;98900.19;;;10.57;100.00
70407;BME280;57821;52.202;0.154;2023-03-31T03:17:50;98881.94;;;10.60;100.00
70407;BME280;57821;52.202;0.154;2023-03-31T03:20:19;98872.41;;;10.61;100.00
70407;BME280;57821;52.202;0.154;2023-03-31T03:22:46;98865.50;;;10.61;100.00
70407;BME280;57821;52.202;0.154;2023-03-31T03:25:14;98851.69;;;10.61;100.00
70407;BME280;57821;52.202;0.154;2023-03-31T03:27:41;98855.03;;;10.64;100.00
70407;BME280;57821;52.202;0.154;2023-03-31T03:30:10;98842.06;;;10.64;100.00
70407;BME280;57821;52.202;0.154;2023-03-31T03:32:37;98840.25;;;10.66;100.00
70407;BME280;57821;52.202;0.154;2023-03-31T03:35:05;98836.78;;;10.67;100.00
70407;BME280;57821;52.202;0.154;2023-03-31T03:37:32;98823.81;;;10.67;100.00
70407;BME280;57821;52.202;0.154;2023-03-31T03:39:58;98817.75;;;10.68;100.00
70407;BME280;57821;52.202;0.154;2023-03-31T03:42:25;98812.56;;;10.68;100.00
70407;BME280;57821;52.202;0.154;2023-03-31T03:44:51;98797.84;;;10.69;100.00
70407;BME280;57821;52.202;0.154;2023-03-31T03:47:18;98784.03;;;10.68;100.00
70407;BME280;57821;52.202;0.154;2023-03-31T03:49:44;98772.72;;;10.71;100.00
70407;BME280;57821;52.202;0.154;2023-03-31T03:52:11;98777.06;;;10.70;100.00
70407;BME280;57821;52.202;0.154;2023-03-31T03:54:37;98773.59;;;10.72;100.00
70407;BME280;57821;52.202;0.154;2023-03-31T03:57:04;98767.47;;;10.73;100.00
70407;BME280;57821;52.202;0.154;2023-03-31T03:59:30;98751.91;;;10.73;100.00
70407;BME280;57821;52.202;0.154;2023-03-31T04:01:57;98749.28;;;10.74;100.00
70407;BME280;57821;52.202;0.154;2023-03-31T04:04:24;98744.09;;;10.74;100.00
70407;BME280;57821;52.202;0.154;2023-03-31T04:06:50;98739.72;;;10.76;100.00
70407;BME280;57821;52.202;0.154;2023-03-31T04:09:17;98726.75;;;10.76;100.00
70407;BME280;57821;52.202;0.154;2023-03-31T04:11:43;98730.97;;;10.79;100.00
70407;BME280;57821;52.202;0.154;2023-03-31T04:14:10;98719.75;;;10.78;100.00
70407;BME280;57821;52.202;0.154;2023-03-31T04:16:36;98712.81;;;10.79;100.00
70407;BME280;57821;52.202;0.154;2023-03-31T04:19:03;98705.03;;;10.79;100.00
70407;BME280;57821;52.202;0.154;2023-03-31T04:21:30;98699.84;;;10.79;100.00
70407;BME280;57821;52.202;0.154;2023-03-31T04:23:57;98691.31;;;10.77;100.00
70407;BME280;57821;52.202;0.154;2023-03-31T04:26:25;98697.34;;;10.77;100.00
70407;BME280;57821;52.202;0.154;2023-03-31T04:28:51;98688.72;;;10.77;100.00
70407;BME280;57821;52.202;0.154;2023-03-31T04:31:18;98678.34;;;10.77;100.00
70407;BME280;57821;52.202;0.154;2023-03-31T04:33:44;98675.75;;;10.77;100.00
70407;BME280;57821;52.202;0.154;2023-03-31T04:36:11;98670.56;;;10.77;100.00
70407;BME280;57821;52.202;0.154;2023-03-31T04:38:37;98657.63;;;10.77;100.00
70407;BME280;57821;52.202;0.154;2023-03-31T04:41:04;98658.38;;;10.79;100.00
70407;BME280;57821;52.202;0.154;2023-03-31T04:43:30;98658.38;;;10.79;100.00
70407;BME280;57821;52.202;0.154;2023-03-31T04:45:57;98650.59;;;10.79;100.00
70407;BME280;57821;52.202;0.154;2023-03-31T04:48:23;98642.81;;;10.79;100.00
70407;BME280;57821;52.202;0.154;2023-03-31T04:50:50;98635.94;;;10.78;100.00
70407;BME280;57821;52.202;0.154;2023-03-31T04:53:16;98635.91;;;10.79;100.00
70407;BME280;57821;52.202;0.154;2023-03-31T04:55:43;98640.22;;;10.79;100.00
70407;BME280;57821;52.202;0.154;2023-03-31T04:58:09;98622.09;;;10.79;100.00
70407;BME280;57821;52.202;0.154;2023-03-31T05:00:36;98626.38;;;10.80;100.00
70407;BME280;57821;52.202;0.154;2023-03-31T05:03:02;98616.06;;;10.78;100.00
70407;BME280;57821;52.202;0.154;2023-03-31T05:05:29;98609.22;;;10.77;100.00
70407;BME280;57821;52.202;0.154;2023-03-31T05:07:55;98603.19;;;10.77;100.00
70407;BME280;57821;52.202;0.154;2023-03-31T05:10:22;98600.63;;;10.75;100.00
70407;BME280;57821;52.202;0.154;2023-03-31T05:12:49;98598.09;;;10.74;100.00
70407;BME280;57821;52.202;0.154;2023-03-31T05:15:15;98592.91;;;10.74;100.00
70407;BME280;57821;52.202;0.154;2023-03-31T05:17:42;98582.69;;;10.70;100.00
70407;BME280;57821;52.202;0.154;2023-03-31T05:20:09;98580.97;;;10.69;100.00
70407;BME280;57821;52.202;0.154;2023-03-31T05:22:37;98580.13;;;10.69;100.00
70407;BME280;57821;52.202;0.154;2023-03-31T05:25:07;98577.53;;;10.69;100.00
70407;BME280;57821;52.202;0.154;2023-03-31T05:27:34;98562.03;;;10.67;100.00
70407;BME280;57821;52.202;0.154;2023-03-31T05:30:03;98562.88;;;10.68;100.00
70407;BME280;57821;52.202;0.154;2023-03-31T05:32:29;98551.69;;;10.67;100.00
70407;BME280;57821;52.202;0.154;2023-03-31T05:34:56;98554.22;;;10.69;100.00
70407;BME280;57821;52.202;0.154;2023-03-31T05:37:24;98556.00;;;10.67;100.00
70407;BME280;57821;52.202;0.154;2023-03-31T05:39:51;98545.78;;;10.64;100.00
70407;BME280;57821;52.202;0.154;2023-03-31T05:42:18;98546.69;;;10.63;100.00
70407;BME280;57821;52.202;0.154;2023-03-31T05:44:45;98548.41;;;10.62;100.00
70407;BME280;57821;52.202;0.154;2023-03-31T05:47:12;98536.38;;;10.61;100.00
70407;BME280;57821;52.202;0.154;2023-03-31T05:49:38;98530.34;;;10.61;99.95
70407;BME280;57821;52.202;0.154;2023-03-31T05:52:06;98532.88;;;10.62;100.00
70407;BME280;57821;52.202;0.154;2023-03-31T05:54:33;98525.94;;;10.63;100.00
70407;BME280;57821;52.202;0.154;2023-03-31T05:56:59;98525.06;;;10.64;99.98
70407;BME280;57821;52.202;0.154;2023-03-31T05:59:26;98523.22;;;10.66;100.00
70407;BME280;57821;52.202;0.154;2023-03-31T06:01:52;98518.03;;;10.66;100.00
70407;BME280;57821;52.202;0.154;2023-03-31T06:04:19;98510.22;;;10.67;99.42
70407;BME280;57821;52.202;0.154;2023-03-31T06:06:46;98509.38;;;10.67;99.61
70407;BME280;57821;52.202;0.154;2023-03-31T06:09:12;98507.63;;;10.67;99.75
70407;BME280;57821;52.202;0.154;2023-03-31T06:11:39;98508.41;;;10.69;99.86
70407;BME280;57821;52.202;0.154;2023-03-31T06:14:05;98502.31;;;10.70;99.88
70407;BME280;57821;52.202;0.154;2023-03-31T06:16:32;98505.78;;;10.71;99.68
70407;BME280;57821;52.202;0.154;2023-03-31T06:18:58;98503.09;;;10.73;99.33
70407;BME280;57821;52.202;0.154;2023-03-31T06:21:25;98504.03;;;10.72;99.47
70407;BME280;57821;52.202;0.154;2023-03-31T06:23:51;98501.34;;;10.73;99.35
70407;BME280;57821;52.202;0.154;2023-03-31T06:26:18;98490.13;;;10.73;99.58
70407;BME280;57821;52.202;0.154;2023-03-31T06:28:45;98489.22;;;10.74;99.70
70407;BME280;57821;52.202;0.154;2023-03-31T06:31:15;98485.75;;;10.75;99.29
70407;BME280;57821;52.202;0.154;2023-03-31T06:33:42;98488.19;;;10.78;99.21
70407;BME280;57821;52.202;0.154;2023-03-31T06:36:11;98471.16;;;10.72;99.28
70407;BME280;57821;52.202;0.154;2023-03-31T06:38:39;98481.16;;;10.81;99.52
70407;BME280;57821;52.202;0.154;2023-03-31T06:41:07;98476.81;;;10.82;99.14
70407;BME280;57821;52.202;0.154;2023-03-31T06:43:34;98480.16;;;10.84;98.58
70407;BME280;57821;52.202;0.154;2023-03-31T06:46:01;98464.63;;;10.84;98.56
70407;BME280;57821;52.202;0.154;2023-03-31T06:48:27;98470.59;;;10.86;98.69
70407;BME280;57821;52.202;0.154;2023-03-31T06:50:55;98467.09;;;10.87;98.87
70407;BME280;57821;52.202;0.154;2023-03-31T06:53:24;98466.19;;;10.88;98.57
70407;BME280;57821;52.202;0.154;2023-03-31T06:55:50;98461.00;;;10.88;98.62
70407;BME280;57821;52.202;0.154;2023-03-31T06:58:17;98463.53;;;10.89;98.63
70407;BME280;57821;52.202;0.154;2023-03-31T07:00:43;98461.78;;;10.90;98.71
70407;BME280;57821;52.202;0.154;2023-03-31T07:03:11;98457.38;;;10.92;99.07
70407;BME280;57821;52.202;0.154;2023-03-31T07:05:38;98457.38;;;10.92;98.85
70407;BME280;57821;52.202;0.154;2023-03-31T07:08:05;98455.59;;;10.94;99.10
70407;BME280;57821;52.202;0.154;2023-03-31T07:10:31;98452.16;;;10.93;99.50
70407;BME280;57821;52.202;0.154;2023-03-31T07:12:58;98450.41;;;10.94;99.34
70407;BME280;57821;52.202;0.154;2023-03-31T07:15:25;98448.81;;;10.90;99.45
70407;BME280;57821;52.202;0.154;2023-03-31T07:17:51;98454.84;;;10.90;98.97
70407;BME280;57821;52.202;0.154;2023-03-31T07:20:18;98445.47;;;10.88;99.86
70407;BME280;57821;52.202;0.154;2023-03-31T07:22:46;98448.06;;;10.88;100.00
70407;BME280;57821;52.202;0.154;2023-03-31T07:25:15;98439.50;;;10.86;100.00
70407;BME280;57821;52.202;0.154;2023-03-31T07:27:42;98442.97;;;10.85;100.00
70407;BME280;57821;52.202;0.154;2023-03-31T07:30:13;98433.75;;;10.78;100.00
70407;BME280;57821;52.202;0.154;2023-03-31T07:32:40;98443.81;;;10.85;100.00
70407;BME280;57821;52.202;0.154;2023-03-31T07:35:08;98440.38;;;10.85;100.00
70407;BME280;57821;52.202;0.154;2023-03-31T07:37:39;98444.66;;;10.86;100.00
70407;BME280;57821;52.202;0.154;2023-03-31T07:40:09;98443.78;;;10.87;100.00
70407;BME280;57821;52.202;0.154;2023-03-31T07:42:36;98433.25;;;10.90;100.00
70407;BME280;57821;52.202;0.154;2023-03-31T07:45:03;98438.19;;;10.96;100.00
70407;BME280;57821;52.202;0.154;2023-03-31T07:47:30;98431.16;;;10.99;100.00
70407;BME280;57821;52.202;0.154;2023-03-31T07:49:57;98431.91;;;11.01;100.00
70407;BME280;57821;52.202;0.154;2023-03-31T07:52:24;98438.53;;;11.08;100.00
70407;BME280;57821;52.202;0.154;2023-03-31T07:54:50;98434.06;;;11.12;100.00
70407;BME280;57821;52.202;0.154;2023-03-31T07:57:17;98433.06;;;11.15;100.00
70407;BME280;57821;52.202;0.154;2023-03-31T07:59:45;98431.22;;;11.18;100.00
70407;BME280;57821;52.202;0.154;2023-03-31T08:02:14;98421.75;;;11.17;100.00
70407;BME280;57821;52.202;0.154;2023-03-31T08:04:41;98429.06;;;11.28;100.00
70407;BME280;57821;52.202;0.154;2023-03-31T08:07:09;98441.72;;;11.35;100.00
70407;BME280;57821;52.202;0.154;2023-03-31T08:09:36;98430.47;;;11.35;100.00
70407;BME280;57821;52.202;0.154;2023-03-31T08:12:03;98431.06;;;11.41;100.00
70407;BME280;57821;52.202;0.154;2023-03-31T08:14:31;98422.22;;;11.45;100.00
70407;BME280;57821;52.202;0.154;2023-03-31T08:17:06;98419.47;;;11.48;100.00
70407;BME280;57821;52.202;0.154;2023-03-31T08:19:33;98420.13;;;11.53;100.00
70407;BME280;57821;52.202;0.154;2023-03-31T08:21:59;98421.53;;;11.61;100.00
70407;BME280;57821;52.202;0.154;2023-03-31T08:24:26;98425.50;;;11.69;100.00
70407;BME280;57821;52.202;0.154;2023-03-31T08:26:53;98417.25;;;11.80;100.00
70407;BME280;57821;52.202;0.154;2023-03-31T08:29:19;98408.16;;;11.88;100.00
70407;BME280;57821;52.202;0.154;2023-03-31T08:31:46;98406.91;;;11.97;100.00
70407;BME280;57821;52.202;0.154;2023-03-31T08:34:12;98415.13;;;12.07;100.00
70407;BME280;57821;52.202;0.154;2023-03-31T08:36:39;98405.28;;;12.13;100.00
70407;BME280;57821;52.202;0.154;2023-03-31T08:39:05;98410.97;;;12.21;100.00
70407;BME280;57821;52.202;0.154;2023-03-31T08:41:48;98394.31;;;12.25;100.00
70407;BME280;57821;52.202;0.154;2023-03-31T08:44:34;98402.31;;;12.40;100.00
70407;BME280;57821;52.202;0.154;2023-03-31T08:47:04;98391.44;;;12.49;100.00
70407;BME280;57821;52.202;0.154;2023-03-31T08:49:40;98400.63;;;12.56;100.00
70407;BME280;57821;52.202;0.154;2023-03-31T08:52:13;98379.22;;;12.51;99.08
70407;BME280;57821;52.202;0.154;2023-03-31T08:54:42;98390.31;;;12.54;99.54
70407;BME280;57821;52.202;0.154;2023-03-31T08:57:15;98375.84;;;12.49;99.80
70407;BME280;57821;52.202;0.154;2023-03-31T08:59:43;98387.78;;;12.53;99.79
70407;BME280;57821;52.202;0.154;2023-03-31T09:02:20;98394.72;;;12.52;99.45
70407;BME280;57821;52.202;0.154;2023-03-31T09:05:03;98389.47;;;12.54;99.21
70407;BME280;57821;52.202;0.154;2023-03-31T09:10:41;98394.22;;;12.63;99.37
70407;BME280;57821;52.202;0.154;2023-03-31T09:15:50;98387.19;;;12.65;98.92
70407;BME280;57821;52.202;0.154;2023-03-31T09:18:39;98401.44;;;12.75;99.02
70407;BME280;57821;52.202;0.154;2023-03-31T09:21:22;98393.47;;;12.78;98.41
70407;BME280;57821;52.202;0.154;2023-03-31T09:23:55;98396.97;;;12.77;98.21
70407;BME280;57821;52.202;0.154;2023-03-31T09:26:37;98389.94;;;12.62;97.98
70407;BME280;57821;52.202;0.154;2023-03-31T09:29:12;98388.50;;;12.56;98.29
70407;BME280;57821;52.202;0.154;2023-03-31T09:31:41;98383.81;;;12.46;98.12
70407;BME280;57821;52.202;0.154;2023-03-31T09:34:26;98386.41;;;12.46;99.19
70407;BME280;57821;52.202;0.154;2023-03-31T09:36:53;98379.66;;;12.42;99.31
70407;BME280;57821;52.202;0.154;2023-03-31T09:39:20;98378.91;;;12.40;99.69
70407;BME280;57821;52.202;0.154;2023-03-31T09:41:48;98380.75;;;12.38;99.68
70407;BME280;57821;52.202;0.154;2023-03-31T09:44:25;98370.63;;;12.31;99.74
70407;BME280;57821;52.202;0.154;2023-03-31T09:46:54;98385.44;;;12.29;99.58
70407;BME280;57821;52.202;0.154;2023-03-31T09:49:24;98366.94;;;12.18;99.32
70407;BME280;57821;52.202;0.154;2023-03-31T09:52:03;98369.09;;;12.10;98.74
70407;BME280;57821;52.202;0.154;2023-03-31T09:54:38;98376.16;;;12.07;100.00
70407;BME280;57821;52.202;0.154;2023-03-31T09:57:13;98372.03;;;12.03;100.00
70407;BME280;57821;52.202;0.154;2023-03-31T09:59:40;98374.00;;;11.98;100.00
70407;BME280;57821;52.202;0.154;2023-03-31T10:02:34;98371.63;;;11.93;100.00
70407;BME280;57821;52.202;0.154;2023-03-31T10:05:06;98376.81;;;11.93;100.00
70407;BME280;57821;52.202;0.154;2023-03-31T10:07:33;98367.34;;;11.92;100.00
70407;BME280;57821;52.202;0.154;2023-03-31T10:10:00;98366.44;;;11.93;100.00
70407;BME280;57821;52.202;0.154;2023-03-31T10:12:28;98362.84;;;11.96;100.00
70407;BME280;57821;52.202;0.154;2023-03-31T10:15:11;98350.97;;;11.90;100.00
70407;BME280;57821;52.202;0.154;2023-03-31T10:17:41;98359.88;;;12.03;100.00
70407;BME280;57821;52.202;0.154;2023-03-31T10:20:43;98357.22;;;12.05;100.00
70407;BME280;57821;52.202;0.154;2023-03-31T10:23:16;98347.47;;;12.10;100.00
70407;BME280;57821;52.202;0.154;2023-03-31T10:25:45;98356.72;;;12.15;100.00
70407;BME280;57821;52.202;0.154;2023-03-31T10:28:16;98353.94;;;12.18;100.00
70407;BME280;57821;52.202;0.154;2023-03-31T10:30:48;98356.72;;;12.15;100.00
70407;BME280;57821;52.202;0.154;2023-03-31T10:33:22;98358.84;;;12.24;100.00
70407;BME280;57821;52.202;0.154;2023-03-31T10:36:01;98362.06;;;12.29;100.00
70407;BME280;57821;52.202;0.154;2023-03-31T10:38:35;98344.94;;;12.25;100.00
70407;BME280;57821;52.202;0.154;2023-03-31T10:41:03;98350.47;;;12.37;100.00
70407;BME280;57821;52.202;0.154;2023-03-31T10:43:46;98354.81;;;12.36;100.00
70407;BME280;57821;52.202;0.154;2023-03-31T10:46:13;98359.16;;;12.35;100.00
70407;BME280;57821;52.202;0.154;2023-03-31T10:48:40;98357.84;;;12.46;100.00
70407;BME280;57821;52.202;0.154;2023-03-31T10:51:16;98360.81;;;12.55;100.00
70407;BME280;57821;52.202;0.154;2023-03-31T10:53:54;98361.34;;;12.62;100.00
70407;BME280;57821;52.202;0.154;2023-03-31T10:59:00;98365.53;;;12.82;100.00
70407;BME280;57821;52.202;0.154;2023-03-31T11:13:32;98368.34;;;13.29;100.00
70407;BME280;57821;52.202;0.154;2023-03-31T11:27:36;98379.06;;;13.23;100.00
70407;BME280;57821;52.202;0.154;2023-03-31T11:30:23;98388.13;;;13.15;100.00
70407;BME280;57821;52.202;0.154;2023-03-31T11:44:04;98388.84;;;13.35;100.00
70407;BME280;57821;52.202;0.154;2023-03-31T11:46:52;98387.88;;;13.53;100.00
70407;BME280;57821;52.202;0.154;2023-03-31T11:51:58;98383.97;;;13.93;100.00
70407;BME280;57821;52.202;0.154;2023-03-31T11:54:39;98375.97;;;14.12;100.00
70407;BME280;57821;52.202;0.154;2023-03-31T11:57:24;98396.31;;;14.36;100.00
70407;BME280;57821;52.202;0.154;2023-03-31T11:59:56;98387.50;;;14.39;100.00
70407;BME280;57821;52.202;0.154;2023-03-31T12:02:43;98401.53;;;14.52;100.00
70407;BME280;57821;52.202;0.154;2023-03-31T12:05:11;98397.22;;;14.51;100.00
70407;BME280;57821;52.202;0.154;2023-03-31T12:08:07;98398.16;;;14.50;100.00
70407;BME280;57821;52.202;0.154;2023-03-31T12:10:37;98394.97;;;14.45;100.00
70407;BME280;57821;52.202;0.154;2023-03-31T12:15:50;98422.63;;;14.32;100.00
70407;BME280;57821;52.202;0.154;2023-03-31T12:18:23;98419.94;;;14.18;100.00
70407;BME280;57821;52.202;0.154;2023-03-31T12:20:55;98418.34;;;13.99;100.00
70407;BME280;57821;52.202;0.154;2023-03-31T12:23:29;98414.63;;;13.88;100.00
70407;BME280;57821;52.202;0.154;2023-03-31T12:28:45;98430.25;;;13.72;100.00
70407;BME280;57821;52.202;0.154;2023-03-31T12:31:21;98416.44;;;13.54;100.00
70407;BME280;57821;52.202;0.154;2023-03-31T12:34:01;98435.19;;;13.61;100.00
70407;BME280;57821;52.202;0.154;2023-03-31T12:36:43;98432.59;;;13.61;100.00
70407;BME280;57821;52.202;0.154;2023-03-31T12:47:48;98438.25;;;13.52;100.00
70407;BME280;57821;52.202;0.154;2023-03-31T12:53:18;98441.38;;;13.58;100.00
70407;BME280;57821;52.202;0.154;2023-03-31T12:55:54;98441.75;;;13.68;100.00
70407;BME280;57821;52.202;0.154;2023-03-31T13:01:05;98438.34;;;13.99;100.00
70407;BME280;57821;52.202;0.154;2023-03-31T13:05:59;98448.94;;;14.27;100.00
70407;BME280;57821;52.202;0.154;2023-03-31T13:08:48;98451.00;;;14.54;100.00
70407;BME280;57821;52.202;0.154;2023-03-31T13:11:17;98436.69;;;14.61;100.00
70407;BME280;57821;52.202;0.154;2023-03-31T13:13:50;98452.81;;;14.67;100.00
70407;BME280;57821;52.202;0.154;2023-03-31T13:16:39;98458.28;;;14.63;100.00
70407;BME280;57821;52.202;0.154;2023-03-31T13:19:06;98456.84;;;14.57;100.00
70407;BME280;57821;52.202;0.154;2023-03-31T13:21:51;98449.56;;;14.48;100.00
70407;BME280;57821;52.202;0.154;2023-03-31T13:24:23;98460.91;;;14.47;100.00
70407;BME280;57821;52.202;0.154;2023-03-31T13:26:51;98470.56;;;14.45;100.00
70407;BME280;57821;52.202;0.154;2023-03-31T13:29:25;98473.19;;;14.45;100.00
70407;BME280;57821;52.202;0.154;2023-03-31T13:34:38;98478.72;;;14.39;100.00
70407;BME280;57821;52.202;0.154;2023-03-31T13:39:50;98488.69;;;14.48;100.00
70407;BME280;57821;52.202;0.154;2023-03-31T13:42:39;98497.59;;;14.60;100.00
70407;BME280;57821;52.202;0.154;2023-03-31T13:48:40;98512.72;;;14.53;100.00
70407;BME280;57821;52.202;0.154;2023-03-31T13:54:35;98521.50;;;14.35;100.00
70407;BME280;57821;52.202;0.154;2023-03-31T13:57:30;98524.91;;;14.37;100.00
70407;BME280;57821;52.202;0.154;2023-03-31T14:05:58;98532.22;;;14.46;100.00
70407;BME280;57821;52.202;0.154;2023-03-31T14:08:38;98523.81;;;14.41;100.00
70407;BME280;57821;52.202;0.154;2023-03-31T14:11:26;98547.13;;;14.44;100.00
70407;BME280;57821;52.202;0.154;2023-03-31T14:14:11;98553.91;;;14.31;100.00
70407;BME280;57821;52.202;0.154;2023-03-31T14:16:40;98547.66;;;14.18;100.00
70407;BME280;57821;52.202;0.154;2023-03-31T14:21:58;98556.00;;;13.91;100.00
70407;BME280;57821;52.202;0.154;2023-03-31T14:24:35;98555.56;;;13.66;100.00
70407;BME280;57821;52.202;0.154;2023-03-31T14:27:42;98575.50;;;13.50;100.00
70407;BME280;57821;52.202;0.154;2023-03-31T14:30:14;98585.88;;;13.33;100.00
70407;BME280;57821;52.202;0.154;2023-03-31T14:35:32;98588.72;;;13.09;100.00
70407;BME280;57821;52.202;0.154;2023-03-31T14:38:02;98601.88;;;13.06;100.00
70407;BME280;57821;52.202;0.154;2023-03-31T14:40:31;98602.03;;;13.03;100.00
70407;BME280;57821;52.202;0.154;2023-03-31T14:42:57;98602.31;;;12.97;100.00
70407;BME280;57821;52.202;0.154;2023-03-31T14:45:25;98605.97;;;12.93;100.00
70407;BME280;57821;52.202;0.154;2023-03-31T14:48:13;98611.31;;;12.90;100.00
70407;BME280;57821;52.202;0.154;2023-03-31T14:50:45;98615.63;;;12.91;100.00
70407;BME280;57821;52.202;0.154;2023-03-31T14:53:16;98627.63;;;12.94;100.00
70407;BME280;57821;52.202;0.154;2023-03-31T14:55:44;98636.34;;;12.93;100.00
70407;BME280;57821;52.202;0.154;2023-03-31T14:58:33;98617.78;;;12.82;100.00
70407;BME280;57821;52.202;0.154;2023-03-31T15:01:05;98637.34;;;12.90;100.00
70407;BME280;57821;52.202;0.154;2023-03-31T15:03:34;98647.56;;;12.93;100.00
70407;BME280;57821;52.202;0.154;2023-03-31T15:06:03;98645.75;;;12.95;100.00
70407;BME280;57821;52.202;0.154;2023-03-31T15:08:30;98650.97;;;12.95;100.00
70407;BME280;57821;52.202;0.154;2023-03-31T15:10:59;98658.97;;;12.91;100.00
70407;BME280;57821;52.202;0.154;2023-03-31T15:13:43;98656.88;;;12.80;100.00
70407;BME280;57821;52.202;0.154;2023-03-31T15:16:44;98674.19;;;12.81;100.00
70407;BME280;57821;52.202;0.154;2023-03-31T15:19:24;98688.38;;;12.74;100.00
70407;BME280;57821;52.202;0.154;2023-03-31T15:21:56;98683.28;;;12.71;100.00
70407;BME280;57821;52.202;0.154;2023-03-31T15:24:24;98685.25;;;12.66;100.00